sensor_id;sensor_type;location;lat;lon;timestamp;P1;durP1;ratioP1;P2;durP2;ratioP2
60211;SDS011;46079;48.686;15.598;2023-06-10T00:00:43;6.18;;;2.40;;
60211;SDS011;46079;48.686;15.598;2023-06-10T00:03:09;6.55;;;2.60;;
60211;SDS011;46079;48.686;15.598;2023-06-10T00:05:35;6.50;;;2.65;;
60211;SDS011;46079;48.686;15.598;2023-06-10T00:08:03;6.60;;;2.50;;
60211;SDS011;46079;48.686;15.598;2023-06-10T00:10:35;6.10;;;2.33;;
60211;SDS011;46079;48.686;15.598;2023-06-10T00:13:03;6.10;;;2.40;;
60211;SDS011;46079;48.686;15.598;2023-06-10T00:15:30;7.07;;;2.70;;
60211;SDS011;46079;48.686;15.598;2023-06-10T00:17:56;5.68;;;2.17;;
60211;SDS011;46079;48.686;15.598;2023-06-10T00:20:21;6.45;;;2.50;;
60211;SDS011;46079;48.686;15.598;2023-06-10T00:22:49;6.95;;;2.70;;
60211;SDS011;46079;48.686;15.598;2023-06-10T00:25:14;7.25;;;2.40;;
60211;SDS011;46079;48.686;15.598;2023-06-10T00:27:40;6.25;;;2.30;;
60211;SDS011;46079;48.686;15.598;2023-06-10T00:30:06;6.57;;;2.60;;
60211;SDS011;46079;48.686;15.598;2023-06-10T00:32:32;6.28;;;2.30;;
60211;SDS011;46079;48.686;15.598;2023-06-10T00:34:58;6.90;;;2.35;;
60211;SDS011;46079;48.686;15.598;2023-06-10T00:37:24;6.32;;;2.47;;
60211;SDS011;46079;48.686;15.598;2023-06-10T00:39:49;6.72;;;2.50;;
60211;SDS011;46079;48.686;15.598;2023-06-10T00:42:15;6.75;;;2.60;;
60211;SDS011;46079;48.686;15.598;2023-06-10T00:44:40;6.93;;;2.55;;
60211;SDS011;46079;48.686;15.598;2023-06-10T00:47:05;6.90;;;2.80;;
60211;SDS011;46079;48.686;15.598;2023-06-10T00:49:32;6.72;;;2.42;;
60211;SDS011;46079;48.686;15.598;2023-06-10T00:51:58;6.40;;;2.40;;
60211;SDS011;46079;48.686;15.598;2023-06-10T00:54:24;6.50;;;2.60;;
60211;SDS011;46079;48.686;15.598;2023-06-10T00:56:51;7.43;;;2.60;;
60211;SDS011;46079;48.686;15.598;2023-06-10T00:59:17;6.40;;;2.40;;
60211;SDS011;46079;48.686;15.598;2023-06-10T01:01:43;6.30;;;2.55;;
60211;SDS011;46079;48.686;15.598;2023-06-10T01:04:12;6.38;;;2.65;;
60211;SDS011;46079;48.686;15.598;2023-06-10T01:14:41;6.60;;;2.60;;
60211;SDS011;46079;48.686;15.598;2023-06-10T01:17:10;5.90;;;2.28;;
60211;SDS011;46079;48.686;15.598;2023-06-10T01:19:36;6.20;;;2.40;;
60211;SDS011;46079;48.686;15.598;2023-06-10T01:22:02;6.03;;;2.30;;
60211;SDS011;46079;48.686;15.598;2023-06-10T01:24:28;6.30;;;2.35;;
60211;SDS011;46079;48.686;15.598;2023-06-10T01:26:59;6.05;;;2.17;;
60211;SDS011;46079;48.686;15.598;2023-06-10T01:29:37;6.47;;;2.42;;
60211;SDS011;46079;48.686;15.598;2023-06-10T01:32:12;6.80;;;2.80;;
60211;SDS011;46079;48.686;15.598;2023-06-10T01:34:43;6.32;;;2.35;;
60211;SDS011;46079;48.686;15.598;2023-06-10T01:37:14;6.20;;;2.28;;
60211;SDS011;46079;48.686;15.598;2023-06-10T01:39:42;6.47;;;2.60;;
60211;SDS011;46079;48.686;15.598;2023-06-10T01:42:09;6.13;;;2.33;;
60211;SDS011;46079;48.686;15.598;2023-06-10T01:44:36;6.05;;;2.40;;
60211;SDS011;46079;48.686;15.598;2023-06-10T01:47:04;6.60;;;2.50;;
60211;SDS011;46079;48.686;15.598;2023-06-10T01:49:30;6.70;;;2.65;;
60211;SDS011;46079;48.686;15.598;2023-06-10T01:51:55;6.72;;;2.42;;
60211;SDS011;46079;48.686;15.598;2023-06-10T01:54:20;5.82;;;2.20;;
60211;SDS011;46079;48.686;15.598;2023-06-10T01:56:46;6.38;;;2.30;;
60211;SDS011;46079;48.686;15.598;2023-06-10T01:59:11;6.65;;;2.50;;
60211;SDS011;46079;48.686;15.598;2023-06-10T02:01:37;6.30;;;2.40;;
60211;SDS011;46079;48.686;15.598;2023-06-10T02:04:02;6.50;;;2.30;;
60211;SDS011;46079;48.686;15.598;2023-06-10T02:06:27;6.63;;;2.47;;
60211;SDS011;46079;48.686;15.598;2023-06-10T02:08:53;6.28;;;2.55;;
60211;SDS011;46079;48.686;15.598;2023-06-10T02:11:18;6.15;;;2.30;;
60211;SDS011;46079;48.686;15.598;2023-06-10T02:13:44;6.40;;;2.30;;
60211;SDS011;46079;48.686;15.598;2023-06-10T02:16:09;6.00;;;2.20;;
60211;SDS011;46079;48.686;15.598;2023-06-10T02:18:38;6.25;;;2.40;;
60211;SDS011;46079;48.686;15.598;2023-06-10T02:21:06;6.32;;;2.10;;
60211;SDS011;46079;48.686;15.598;2023-06-10T02:23:32;6.10;;;2.38;;
60211;SDS011;46079;48.686;15.598;2023-06-10T02:25:57;5.57;;;2.20;;
60211;SDS011;46079;48.686;15.598;2023-06-10T02:28:23;6.05;;;2.20;;
60211;SDS011;46079;48.686;15.598;2023-06-10T02:30:48;6.55;;;2.35;;
60211;SDS011;46079;48.686;15.598;2023-06-10T02:33:13;6.50;;;2.50;;
60211;SDS011;46079;48.686;15.598;2023-06-10T02:35:40;6.10;;;2.08;;
60211;SDS011;46079;48.686;15.598;2023-06-10T02:38:05;6.78;;;2.30;;
60211;SDS011;46079;48.686;15.598;2023-06-10T02:40:31;5.88;;;2.30;;
60211;SDS011;46079;48.686;15.598;2023-06-10T02:42:56;6.57;;;2.30;;
60211;SDS011;46079;48.686;15.598;2023-06-10T02:45:23;6.25;;;2.47;;
60211;SDS011;46079;48.686;15.598;2023-06-10T02:47:48;6.47;;;2.45;;
60211;SDS011;46079;48.686;15.598;2023-06-10T02:50:14;6.57;;;2.50;;
60211;SDS011;46079;48.686;15.598;2023-06-10T02:52:39;6.43;;;2.28;;
60211;SDS011;46079;48.686;15.598;2023-06-10T02:55:05;6.07;;;2.13;;
60211;SDS011;46079;48.686;15.598;2023-06-10T02:57:31;5.93;;;2.25;;
60211;SDS011;46079;48.686;15.598;2023-06-10T02:59:57;6.20;;;2.42;;
60211;SDS011;46079;48.686;15.598;2023-06-10T03:02:23;6.00;;;2.38;;
60211;SDS011;46079;48.686;15.598;2023-06-10T03:04:54;6.15;;;2.22;;
60211;SDS011;46079;48.686;15.598;2023-06-10T03:07:20;6.78;;;2.40;;
60211;SDS011;46079;48.686;15.598;2023-06-10T03:09:46;6.18;;;2.35;;
60211;SDS011;46079;48.686;15.598;2023-06-10T03:12:11;6.00;;;2.25;;
60211;SDS011;46079;48.686;15.598;2023-06-10T03:14:37;5.78;;;2.30;;
60211;SDS011;46079;48.686;15.598;2023-06-10T03:17:04;6.38;;;2.60;;
60211;SDS011;46079;48.686;15.598;2023-06-10T03:19:31;6.40;;;2.58;;
60211;SDS011;46079;48.686;15.598;2023-06-10T03:22:07;6.13;;;2.40;;
60211;SDS011;46079;48.686;15.598;2023-06-10T03:24:34;6.38;;;2.40;;
60211;SDS011;46079;48.686;15.598;2023-06-10T03:27:01;5.53;;;2.25;;
60211;SDS011;46079;48.686;15.598;2023-06-10T03:29:27;6.25;;;2.40;;
60211;SDS011;46079;48.686;15.598;2023-06-10T03:31:52;6.32;;;2.50;;
60211;SDS011;46079;48.686;15.598;2023-06-10T03:34:18;5.60;;;2.20;;
60211;SDS011;46079;48.686;15.598;2023-06-10T03:36:43;6.22;;;2.47;;
60211;SDS011;46079;48.686;15.598;2023-06-10T03:39:08;6.53;;;2.50;;
60211;SDS011;46079;48.686;15.598;2023-06-10T03:41:34;6.05;;;2.17;;
60211;SDS011;46079;48.686;15.598;2023-06-10T03:44:00;6.18;;;2.28;;
60211;SDS011;46079;48.686;15.598;2023-06-10T03:46:26;6.32;;;2.40;;
60211;SDS011;46079;48.686;15.598;2023-06-10T03:48:51;6.22;;;2.42;;
60211;SDS011;46079;48.686;15.598;2023-06-10T03:51:16;6.63;;;2.58;;
60211;SDS011;46079;48.686;15.598;2023-06-10T03:53:42;6.53;;;2.47;;
60211;SDS011;46079;48.686;15.598;2023-06-10T03:56:07;6.10;;;2.30;;
60211;SDS011;46079;48.686;15.598;2023-06-10T03:58:32;6.15;;;2.35;;
60211;SDS011;46079;48.686;15.598;2023-06-10T04:00:58;5.68;;;2.10;;
60211;SDS011;46079;48.686;15.598;2023-06-10T04:03:24;6.80;;;2.40;;
60211;SDS011;46079;48.686;15.598;2023-06-10T04:05:49;6.38;;;2.45;;
60211;SDS011;46079;48.686;15.598;2023-06-10T04:08:15;6.70;;;2.80;;
60211;SDS011;46079;48.686;15.598;2023-06-10T04:10:41;7.43;;;2.50;;
60211;SDS011;46079;48.686;15.598;2023-06-10T04:13:06;5.88;;;2.20;;
60211;SDS011;46079;48.686;15.598;2023-06-10T04:15:31;6.22;;;2.13;;
60211;SDS011;46079;48.686;15.598;2023-06-10T04:18:00;6.57;;;2.58;;
60211;SDS011;46079;48.686;15.598;2023-06-10T04:20:26;6.65;;;2.50;;
60211;SDS011;46079;48.686;15.598;2023-06-10T04:22:52;6.28;;;2.35;;
60211;SDS011;46079;48.686;15.598;2023-06-10T04:25:17;6.32;;;2.40;;
60211;SDS011;46079;48.686;15.598;2023-06-10T04:27:43;6.53;;;2.33;;
60211;SDS011;46079;48.686;15.598;2023-06-10T04:30:09;6.22;;;2.40;;
60211;SDS011;46079;48.686;15.598;2023-06-10T04:32:35;5.72;;;2.15;;
60211;SDS011;46079;48.686;15.598;2023-06-10T04:35:00;6.43;;;2.30;;
60211;SDS011;46079;48.686;15.598;2023-06-10T04:37:26;5.40;;;2.10;;
60211;SDS011;46079;48.686;15.598;2023-06-10T04:39:51;6.18;;;2.38;;
60211;SDS011;46079;48.686;15.598;2023-06-10T04:42:17;6.05;;;2.00;;
60211;SDS011;46079;48.686;15.598;2023-06-10T04:44:42;5.60;;;2.10;;
60211;SDS011;46079;48.686;15.598;2023-06-10T04:47:08;6.18;;;2.30;;
60211;SDS011;46079;48.686;15.598;2023-06-10T04:49:34;5.47;;;1.98;;
60211;SDS011;46079;48.686;15.598;2023-06-10T04:52:00;6.15;;;2.35;;
60211;SDS011;46079;48.686;15.598;2023-06-10T04:54:25;6.13;;;2.25;;
60211;SDS011;46079;48.686;15.598;2023-06-10T04:56:51;5.93;;;2.15;;
60211;SDS011;46079;48.686;15.598;2023-06-10T04:59:16;6.45;;;2.30;;
60211;SDS011;46079;48.686;15.598;2023-06-10T05:01:42;6.00;;;2.05;;
60211;SDS011;46079;48.686;15.598;2023-06-10T05:04:08;6.40;;;2.40;;
60211;SDS011;46079;48.686;15.598;2023-06-10T05:06:33;5.90;;;2.22;;
60211;SDS011;46079;48.686;15.598;2023-06-10T05:08:59;5.65;;;2.30;;
60211;SDS011;46079;48.686;15.598;2023-06-10T05:11:24;6.25;;;2.35;;
60211;SDS011;46079;48.686;15.598;2023-06-10T05:13:50;5.93;;;2.20;;
60211;SDS011;46079;48.686;15.598;2023-06-10T05:16:15;6.75;;;2.45;;
60211;SDS011;46079;48.686;15.598;2023-06-10T05:18:41;5.78;;;2.05;;
60211;SDS011;46079;48.686;15.598;2023-06-10T05:21:06;6.43;;;2.50;;
60211;SDS011;46079;48.686;15.598;2023-06-10T05:23:32;6.72;;;2.40;;
60211;SDS011;46079;48.686;15.598;2023-06-10T05:25:58;5.53;;;2.00;;
60211;SDS011;46079;48.686;15.598;2023-06-10T05:28:24;6.00;;;2.28;;
60211;SDS011;46079;48.686;15.598;2023-06-10T05:30:51;5.68;;;2.25;;
60211;SDS011;46079;48.686;15.598;2023-06-10T05:33:16;5.93;;;2.03;;
60211;SDS011;46079;48.686;15.598;2023-06-10T05:35:42;5.93;;;2.30;;
60211;SDS011;46079;48.686;15.598;2023-06-10T05:38:07;5.40;;;2.08;;
60211;SDS011;46079;48.686;15.598;2023-06-10T05:40:33;6.32;;;2.10;;
60211;SDS011;46079;48.686;15.598;2023-06-10T05:42:58;6.28;;;2.30;;
60211;SDS011;46079;48.686;15.598;2023-06-10T05:45:23;6.15;;;2.17;;
60211;SDS011;46079;48.686;15.598;2023-06-10T05:47:49;5.82;;;2.20;;
60211;SDS011;46079;48.686;15.598;2023-06-10T05:50:14;7.03;;;2.47;;
60211;SDS011;46079;48.686;15.598;2023-06-10T05:52:40;5.55;;;2.20;;
60211;SDS011;46079;48.686;15.598;2023-06-10T05:55:06;5.50;;;2.10;;
60211;SDS011;46079;48.686;15.598;2023-06-10T05:57:31;6.35;;;2.35;;
60211;SDS011;46079;48.686;15.598;2023-06-10T05:59:57;6.32;;;2.35;;
60211;SDS011;46079;48.686;15.598;2023-06-10T06:02:22;6.10;;;2.15;;
60211;SDS011;46079;48.686;15.598;2023-06-10T06:04:48;6.10;;;2.40;;
60211;SDS011;46079;48.686;15.598;2023-06-10T06:07:14;5.97;;;2.10;;
60211;SDS011;46079;48.686;15.598;2023-06-10T06:09:39;6.55;;;2.50;;
60211;SDS011;46079;48.686;15.598;2023-06-10T06:12:05;6.57;;;2.40;;
60211;SDS011;46079;48.686;15.598;2023-06-10T06:14:32;6.13;;;2.22;;
60211;SDS011;46079;48.686;15.598;2023-06-10T06:17:01;6.38;;;2.28;;
60211;SDS011;46079;48.686;15.598;2023-06-10T06:19:27;6.53;;;2.50;;
60211;SDS011;46079;48.686;15.598;2023-06-10T06:21:53;6.35;;;2.40;;
60211;SDS011;46079;48.686;15.598;2023-06-10T06:24:18;6.15;;;2.40;;
60211;SDS011;46079;48.686;15.598;2023-06-10T06:26:44;6.00;;;2.30;;
60211;SDS011;46079;48.686;15.598;2023-06-10T06:29:10;6.10;;;2.25;;
60211;SDS011;46079;48.686;15.598;2023-06-10T06:31:35;6.40;;;2.50;;
60211;SDS011;46079;48.686;15.598;2023-06-10T06:34:01;5.85;;;2.28;;
60211;SDS011;46079;48.686;15.598;2023-06-10T06:36:27;6.07;;;2.40;;
60211;SDS011;46079;48.686;15.598;2023-06-10T06:38:52;6.32;;;2.30;;
60211;SDS011;46079;48.686;15.598;2023-06-10T06:41:18;5.82;;;2.08;;
60211;SDS011;46079;48.686;15.598;2023-06-10T06:43:43;6.00;;;2.25;;
60211;SDS011;46079;48.686;15.598;2023-06-10T06:46:09;6.10;;;2.33;;
60211;SDS011;46079;48.686;15.598;2023-06-10T06:48:35;6.05;;;2.38;;
60211;SDS011;46079;48.686;15.598;2023-06-10T06:51:00;6.03;;;2.30;;
60211;SDS011;46079;48.686;15.598;2023-06-10T06:53:25;7.00;;;2.58;;
60211;SDS011;46079;48.686;15.598;2023-06-10T06:55:51;6.22;;;2.35;;
60211;SDS011;46079;48.686;15.598;2023-06-10T06:58:16;6.40;;;2.50;;
60211;SDS011;46079;48.686;15.598;2023-06-10T07:00:42;6.13;;;2.33;;
60211;SDS011;46079;48.686;15.598;2023-06-10T07:03:07;6.10;;;2.20;;
60211;SDS011;46079;48.686;15.598;2023-06-10T07:05:33;6.55;;;2.33;;
60211;SDS011;46079;48.686;15.598;2023-06-10T07:07:58;6.32;;;2.30;;
60211;SDS011;46079;48.686;15.598;2023-06-10T07:10:24;6.72;;;2.53;;
60211;SDS011;46079;48.686;15.598;2023-06-10T07:12:50;6.45;;;2.40;;
60211;SDS011;46079;48.686;15.598;2023-06-10T07:15:16;5.97;;;2.30;;
60211;SDS011;46079;48.686;15.598;2023-06-10T07:17:41;5.97;;;2.13;;
60211;SDS011;46079;48.686;15.598;2023-06-10T07:20:07;6.60;;;2.50;;
60211;SDS011;46079;48.686;15.598;2023-06-10T07:22:33;6.07;;;2.38;;
60211;SDS011;46079;48.686;15.598;2023-06-10T07:25:01;6.13;;;2.42;;
60211;SDS011;46079;48.686;15.598;2023-06-10T07:27:27;6.57;;;2.28;;
60211;SDS011;46079;48.686;15.598;2023-06-10T07:29:52;6.32;;;2.50;;
60211;SDS011;46079;48.686;15.598;2023-06-10T07:32:18;6.47;;;2.45;;
60211;SDS011;46079;48.686;15.598;2023-06-10T07:34:45;6.20;;;2.40;;
60211;SDS011;46079;48.686;15.598;2023-06-10T07:37:11;5.78;;;2.30;;
60211;SDS011;46079;48.686;15.598;2023-06-10T07:39:36;6.05;;;2.55;;
60211;SDS011;46079;48.686;15.598;2023-06-10T07:42:02;6.63;;;2.45;;
60211;SDS011;46079;48.686;15.598;2023-06-10T07:44:27;6.70;;;2.55;;
60211;SDS011;46079;48.686;15.598;2023-06-10T07:46:53;6.82;;;2.50;;
60211;SDS011;46079;48.686;15.598;2023-06-10T07:49:18;6.35;;;2.60;;
60211;SDS011;46079;48.686;15.598;2023-06-10T07:51:44;6.28;;;2.38;;
60211;SDS011;46079;48.686;15.598;2023-06-10T07:54:09;6.20;;;2.33;;
60211;SDS011;46079;48.686;15.598;2023-06-10T07:56:37;6.35;;;2.45;;
60211;SDS011;46079;48.686;15.598;2023-06-10T07:59:02;6.53;;;2.30;;
60211;SDS011;46079;48.686;15.598;2023-06-10T08:01:28;6.40;;;2.40;;
60211;SDS011;46079;48.686;15.598;2023-06-10T08:03:55;6.68;;;2.40;;
60211;SDS011;46079;48.686;15.598;2023-06-10T08:06:20;6.20;;;2.25;;
60211;SDS011;46079;48.686;15.598;2023-06-10T08:08:46;6.78;;;2.53;;
60211;SDS011;46079;48.686;15.598;2023-06-10T08:11:11;6.70;;;2.60;;
60211;SDS011;46079;48.686;15.598;2023-06-10T08:13:37;6.32;;;2.30;;
60211;SDS011;46079;48.686;15.598;2023-06-10T08:16:02;6.43;;;2.60;;
60211;SDS011;46079;48.686;15.598;2023-06-10T08:18:28;6.32;;;2.35;;
60211;SDS011;46079;48.686;15.598;2023-06-10T08:20:54;6.78;;;2.70;;
60211;SDS011;46079;48.686;15.598;2023-06-10T08:23:20;6.90;;;2.60;;
60211;SDS011;46079;48.686;15.598;2023-06-10T08:25:45;6.90;;;2.60;;
60211;SDS011;46079;48.686;15.598;2023-06-10T08:28:11;6.40;;;2.50;;
60211;SDS011;46079;48.686;15.598;2023-06-10T08:30:36;6.53;;;2.80;;
60211;SDS011;46079;48.686;15.598;2023-06-10T08:33:02;6.07;;;2.20;;
60211;SDS011;46079;48.686;15.598;2023-06-10T08:35:27;6.13;;;2.42;;
60211;SDS011;46079;48.686;15.598;2023-06-10T08:37:53;6.90;;;2.60;;
60211;SDS011;46079;48.686;15.598;2023-06-10T08:40:18;6.32;;;2.33;;
60211;SDS011;46079;48.686;15.598;2023-06-10T08:42:59;6.45;;;2.55;;
60211;SDS011;46079;48.686;15.598;2023-06-10T08:45:30;6.35;;;2.42;;
60211;SDS011;46079;48.686;15.598;2023-06-10T08:48:00;6.80;;;2.60;;
60211;SDS011;46079;48.686;15.598;2023-06-10T08:50:29;6.95;;;2.80;;
60211;SDS011;46079;48.686;15.598;2023-06-10T08:52:57;6.93;;;2.55;;
60211;SDS011;46079;48.686;15.598;2023-06-10T08:55:27;7.30;;;2.80;;
60211;SDS011;46079;48.686;15.598;2023-06-10T08:57:55;6.47;;;2.50;;
60211;SDS011;46079;48.686;15.598;2023-06-10T09:00:21;6.80;;;2.60;;
60211;SDS011;46079;48.686;15.598;2023-06-10T09:02:47;7.30;;;2.80;;
60211;SDS011;46079;48.686;15.598;2023-06-10T09:05:14;6.45;;;2.45;;
60211;SDS011;46079;48.686;15.598;2023-06-10T09:07:41;6.40;;;2.40;;
60211;SDS011;46079;48.686;15.598;2023-06-10T09:10:06;6.53;;;2.45;;
60211;SDS011;46079;48.686;15.598;2023-06-10T09:12:33;6.20;;;2.60;;
60211;SDS011;46079;48.686;15.598;2023-06-10T09:15:00;7.00;;;2.90;;
60211;SDS011;46079;48.686;15.598;2023-06-10T09:17:26;7.05;;;2.63;;
60211;SDS011;46079;48.686;15.598;2023-06-10T09:19:52;7.00;;;3.05;;
60211;SDS011;46079;48.686;15.598;2023-06-10T09:22:20;6.32;;;2.30;;
60211;SDS011;46079;48.686;15.598;2023-06-10T09:24:47;6.78;;;2.53;;
60211;SDS011;46079;48.686;15.598;2023-06-10T09:27:12;6.95;;;2.67;;
60211;SDS011;46079;48.686;15.598;2023-06-10T09:32:17;6.30;;;2.58;;
60211;SDS011;46079;48.686;15.598;2023-06-10T09:34:43;6.70;;;2.60;;
60211;SDS011;46079;48.686;15.598;2023-06-10T09:37:09;6.45;;;2.50;;
60211;SDS011;46079;48.686;15.598;2023-06-10T09:39:37;6.60;;;2.63;;
60211;SDS011;46079;48.686;15.598;2023-06-10T09:42:04;6.50;;;2.45;;
60211;SDS011;46079;48.686;15.598;2023-06-10T09:44:41;6.82;;;2.70;;
60211;SDS011;46079;48.686;15.598;2023-06-10T09:47:06;6.13;;;2.50;;
60211;SDS011;46079;48.686;15.598;2023-06-10T09:49:32;6.50;;;2.72;;
60211;SDS011;46079;48.686;15.598;2023-06-10T09:51:57;6.60;;;2.65;;
60211;SDS011;46079;48.686;15.598;2023-06-10T09:54:22;5.82;;;2.40;;
60211;SDS011;46079;48.686;15.598;2023-06-10T09:56:48;6.03;;;2.33;;
60211;SDS011;46079;48.686;15.598;2023-06-10T09:59:16;6.25;;;2.45;;
60211;SDS011;46079;48.686;15.598;2023-06-10T10:01:55;6.55;;;2.50;;
60211;SDS011;46079;48.686;15.598;2023-06-10T10:04:24;6.38;;;2.47;;
60211;SDS011;46079;48.686;15.598;2023-06-10T10:06:50;6.47;;;2.50;;
60211;SDS011;46079;48.686;15.598;2023-06-10T10:09:15;6.90;;;2.90;;
60211;SDS011;46079;48.686;15.598;2023-06-10T10:11:41;6.00;;;2.35;;
60211;SDS011;46079;48.686;15.598;2023-06-10T10:14:08;6.70;;;2.83;;
60211;SDS011;46079;48.686;15.598;2023-06-10T10:16:40;6.80;;;2.58;;
60211;SDS011;46079;48.686;15.598;2023-06-10T10:19:07;6.72;;;2.60;;
60211;SDS011;46079;48.686;15.598;2023-06-10T10:21:43;6.57;;;2.60;;
60211;SDS011;46079;48.686;15.598;2023-06-10T10:24:15;6.30;;;2.55;;
60211;SDS011;46079;48.686;15.598;2023-06-10T10:26:42;6.38;;;2.40;;
60211;SDS011;46079;48.686;15.598;2023-06-10T10:29:14;6.90;;;2.85;;
60211;SDS011;46079;48.686;15.598;2023-06-10T10:31:46;6.50;;;2.50;;
60211;SDS011;46079;48.686;15.598;2023-06-10T10:34:15;7.03;;;2.78;;
60211;SDS011;46079;48.686;15.598;2023-06-10T10:36:44;6.70;;;2.75;;
60211;SDS011;46079;48.686;15.598;2023-06-10T10:39:11;6.72;;;2.80;;
60211;SDS011;46079;48.686;15.598;2023-06-10T10:41:37;6.93;;;2.67;;
60211;SDS011;46079;48.686;15.598;2023-06-10T10:44:05;6.85;;;2.63;;
60211;SDS011;46079;48.686;15.598;2023-06-10T10:46:48;7.15;;;2.80;;
60211;SDS011;46079;48.686;15.598;2023-06-10T10:49:15;5.88;;;2.42;;
60211;SDS011;46079;48.686;15.598;2023-06-10T10:51:58;6.47;;;2.58;;
60211;SDS011;46079;48.686;15.598;2023-06-10T10:54:31;6.90;;;2.72;;
60211;SDS011;46079;48.686;15.598;2023-06-10T10:57:17;7.10;;;2.90;;
60211;SDS011;46079;48.686;15.598;2023-06-10T11:02:40;6.70;;;2.80;;
60211;SDS011;46079;48.686;15.598;2023-06-10T11:05:08;6.82;;;2.45;;
60211;SDS011;46079;48.686;15.598;2023-06-10T11:07:34;6.70;;;2.30;;
60211;SDS011;46079;48.686;15.598;2023-06-10T11:12:49;6.65;;;2.47;;
60211;SDS011;46079;48.686;15.598;2023-06-10T11:15:27;6.45;;;2.50;;
60211;SDS011;46079;48.686;15.598;2023-06-10T11:18:07;6.90;;;2.70;;
60211;SDS011;46079;48.686;15.598;2023-06-10T11:26:13;6.82;;;2.47;;
60211;SDS011;46079;48.686;15.598;2023-06-10T11:33:46;7.03;;;2.80;;
60211;SDS011;46079;48.686;15.598;2023-06-10T11:36:13;6.45;;;2.45;;
60211;SDS011;46079;48.686;15.598;2023-06-10T11:38:39;6.57;;;2.60;;
60211;SDS011;46079;48.686;15.598;2023-06-10T11:41:05;6.10;;;2.60;;
60211;SDS011;46079;48.686;15.598;2023-06-10T11:43:32;6.88;;;2.70;;
60211;SDS011;46079;48.686;15.598;2023-06-10T11:45:58;6.47;;;2.60;;
60211;SDS011;46079;48.686;15.598;2023-06-10T11:48:24;6.57;;;2.67;;
60211;SDS011;46079;48.686;15.598;2023-06-10T11:50:53;6.90;;;2.90;;
60211;SDS011;46079;48.686;15.598;2023-06-10T11:53:19;6.93;;;2.70;;
60211;SDS011;46079;48.686;15.598;2023-06-10T11:55:45;7.25;;;3.03;;
60211;SDS011;46079;48.686;15.598;2023-06-10T11:58:19;6.65;;;2.70;;
60211;SDS011;46079;48.686;15.598;2023-06-10T12:00:55;6.80;;;2.70;;
60211;SDS011;46079;48.686;15.598;2023-06-10T12:03:26;6.28;;;2.40;;
60211;SDS011;46079;48.686;15.598;2023-06-10T12:08:26;6.20;;;2.60;;
60211;SDS011;46079;48.686;15.598;2023-06-10T12:10:52;7.30;;;2.75;;
60211;SDS011;46079;48.686;15.598;2023-06-10T12:13:18;6.68;;;2.58;;
60211;SDS011;46079;48.686;15.598;2023-06-10T12:15:44;6.60;;;2.92;;
60211;SDS011;46079;48.686;15.598;2023-06-10T12:18:20;6.93;;;2.67;;
60211;SDS011;46079;48.686;15.598;2023-06-10T12:20:46;6.53;;;2.70;;
60211;SDS011;46079;48.686;15.598;2023-06-10T12:23:17;6.80;;;2.80;;
60211;SDS011;46079;48.686;15.598;2023-06-10T12:25:50;6.32;;;2.58;;
60211;SDS011;46079;48.686;15.598;2023-06-10T12:28:21;6.68;;;2.50;;
60211;SDS011;46079;48.686;15.598;2023-06-10T12:30:51;6.90;;;2.70;;
60211;SDS011;46079;48.686;15.598;2023-06-10T12:33:20;7.00;;;3.10;;
60211;SDS011;46079;48.686;15.598;2023-06-10T12:35:50;6.43;;;2.47;;
60211;SDS011;46079;48.686;15.598;2023-06-10T12:38:24;6.57;;;2.63;;
60211;SDS011;46079;48.686;15.598;2023-06-10T12:40:52;6.55;;;2.55;;
60211;SDS011;46079;48.686;15.598;2023-06-10T12:43:21;6.80;;;2.78;;
60211;SDS011;46079;48.686;15.598;2023-06-10T12:45:47;7.65;;;2.92;;
60211;SDS011;46079;48.686;15.598;2023-06-10T12:50:50;6.68;;;2.60;;
60211;SDS011;46079;48.686;15.598;2023-06-10T12:53:22;7.30;;;2.88;;
60211;SDS011;46079;48.686;15.598;2023-06-10T12:55:49;8.02;;;3.22;;
60211;SDS011;46079;48.686;15.598;2023-06-10T12:58:16;7.30;;;2.90;;
60211;SDS011;46079;48.686;15.598;2023-06-10T13:00:41;7.30;;;3.20;;
60211;SDS011;46079;48.686;15.598;2023-06-10T13:03:08;7.07;;;3.13;;
60211;SDS011;46079;48.686;15.598;2023-06-10T13:05:37;7.05;;;3.28;;
60211;SDS011;46079;48.686;15.598;2023-06-10T13:08:04;7.72;;;3.33;;
60211;SDS011;46079;48.686;15.598;2023-06-10T13:10:30;7.68;;;3.58;;
60211;SDS011;46079;48.686;15.598;2023-06-10T13:12:56;7.63;;;3.35;;
60211;SDS011;46079;48.686;15.598;2023-06-10T13:15:21;8.38;;;3.97;;
60211;SDS011;46079;48.686;15.598;2023-06-10T13:17:47;8.25;;;3.78;;
60211;SDS011;46079;48.686;15.598;2023-06-10T13:20:14;8.90;;;4.53;;
60211;SDS011;46079;48.686;15.598;2023-06-10T13:22:41;8.75;;;4.03;;
60211;SDS011;46079;48.686;15.598;2023-06-10T13:25:07;9.95;;;4.68;;
60211;SDS011;46079;48.686;15.598;2023-06-10T13:27:36;8.98;;;4.30;;
60211;SDS011;46079;48.686;15.598;2023-06-10T13:30:05;9.73;;;4.68;;
60211;SDS011;46079;48.686;15.598;2023-06-10T13:32:32;9.13;;;4.70;;
60211;SDS011;46079;48.686;15.598;2023-06-10T13:34:57;9.25;;;4.93;;
60211;SDS011;46079;48.686;15.598;2023-06-10T13:37:23;9.20;;;4.65;;
60211;SDS011;46079;48.686;15.598;2023-06-10T13:39:48;10.90;;;5.00;;
60211;SDS011;46079;48.686;15.598;2023-06-10T13:42:18;10.07;;;5.00;;
60211;SDS011;46079;48.686;15.598;2023-06-10T13:44:45;9.52;;;5.03;;
60211;SDS011;46079;48.686;15.598;2023-06-10T13:47:12;10.05;;;5.20;;
60211;SDS011;46079;48.686;15.598;2023-06-10T13:49:38;10.43;;;5.72;;
60211;SDS011;46079;48.686;15.598;2023-06-10T13:52:03;9.35;;;5.38;;
60211;SDS011;46079;48.686;15.598;2023-06-10T13:54:29;10.63;;;5.35;;
60211;SDS011;46079;48.686;15.598;2023-06-10T13:56:55;10.45;;;5.63;;
60211;SDS011;46079;48.686;15.598;2023-06-10T13:59:20;10.65;;;5.40;;
60211;SDS011;46079;48.686;15.598;2023-06-10T14:01:46;10.65;;;6.03;;
60211;SDS011;46079;48.686;15.598;2023-06-10T14:04:12;10.57;;;5.32;;
60211;SDS011;46079;48.686;15.598;2023-06-10T14:06:38;10.18;;;5.72;;
60211;SDS011;46079;48.686;15.598;2023-06-10T14:09:03;10.55;;;5.47;;
60211;SDS011;46079;48.686;15.598;2023-06-10T14:11:29;10.00;;;5.20;;
60211;SDS011;46079;48.686;15.598;2023-06-10T14:13:54;10.82;;;5.72;;
60211;SDS011;46079;48.686;15.598;2023-06-10T14:16:24;11.25;;;5.53;;
60211;SDS011;46079;48.686;15.598;2023-06-10T14:18:49;10.25;;;6.28;;
60211;SDS011;46079;48.686;15.598;2023-06-10T14:21:16;11.20;;;6.07;;
60211;SDS011;46079;48.686;15.598;2023-06-10T14:23:41;10.50;;;5.80;;
60211;SDS011;46079;48.686;15.598;2023-06-10T14:26:08;10.55;;;5.43;;
60211;SDS011;46079;48.686;15.598;2023-06-10T14:28:34;10.82;;;5.80;;
60211;SDS011;46079;48.686;15.598;2023-06-10T14:31:00;10.52;;;5.80;;
60211;SDS011;46079;48.686;15.598;2023-06-10T14:33:26;10.13;;;5.70;;
60211;SDS011;46079;48.686;15.598;2023-06-10T14:35:51;9.48;;;5.57;;
60211;SDS011;46079;48.686;15.598;2023-06-10T14:38:16;10.70;;;6.15;;
60211;SDS011;46079;48.686;15.598;2023-06-10T14:40:42;10.23;;;5.63;;
60211;SDS011;46079;48.686;15.598;2023-06-10T14:43:07;10.07;;;5.68;;
60211;SDS011;46079;48.686;15.598;2023-06-10T14:45:38;10.40;;;6.30;;
60211;SDS011;46079;48.686;15.598;2023-06-10T14:48:05;10.32;;;5.90;;
60211;SDS011;46079;48.686;15.598;2023-06-10T14:50:31;11.48;;;6.35;;
60211;SDS011;46079;48.686;15.598;2023-06-10T14:52:57;11.45;;;6.45;;
60211;SDS011;46079;48.686;15.598;2023-06-10T14:55:23;10.23;;;5.65;;
60211;SDS011;46079;48.686;15.598;2023-06-10T14:57:49;10.20;;;5.95;;
60211;SDS011;46079;48.686;15.598;2023-06-10T15:00:15;11.00;;;6.00;;
60211;SDS011;46079;48.686;15.598;2023-06-10T15:02:44;10.15;;;5.82;;